createdAt,value
2018-11-06T00:01:13.402Z,23.08
2018-11-06T00:03:49.761Z,23.06
2018-11-06T00:06:22.458Z,23.04
2018-11-06T00:09:05.349Z,23.02
2018-11-06T00:11:37.732Z,23.01
2018-11-06T00:14:10.071Z,23.02
2018-11-06T00:16:42.379Z,23.02
2018-11-06T00:19:15.799Z,23.01
2018-11-06T00:21:49.276Z,23.02
2018-11-06T00:24:22.107Z,23.01
2018-11-06T00:26:55.780Z,23.01
2018-11-06T00:29:29.121Z,22.99
2018-11-06T00:32:01.714Z,22.98
2018-11-06T00:34:34.493Z,22.96
2018-11-06T00:37:07.654Z,22.97
2018-11-06T00:39:40.563Z,22.95
2018-11-06T00:42:13.427Z,22.95
2018-11-06T00:44:46.595Z,22.95
2018-11-06T00:47:19.406Z,22.95
2018-11-06T00:49:52.510Z,22.93
2018-11-06T00:52:25.060Z,22.93
2018-11-06T00:54:58.146Z,22.91
2018-11-06T00:57:30.842Z,22.91
2018-11-06T01:00:03.426Z,22.90
2018-11-06T01:02:36.254Z,22.87
2018-11-06T01:05:10.517Z,22.86
2018-11-06T01:07:45.096Z,22.85
2018-11-06T01:10:18.565Z,22.81
2018-11-06T01:12:52.111Z,22.82
2018-11-06T01:15:25.872Z,22.78
2018-11-06T01:17:59.125Z,22.77
2018-11-06T01:20:31.481Z,22.73
2018-11-06T01:23:04.930Z,22.72
2018-11-06T01:25:37.555Z,22.71
2018-11-06T01:28:11.022Z,22.69
2018-11-06T01:30:43.655Z,22.68
2018-11-06T01:33:16.231Z,22.67
2018-11-06T01:35:48.824Z,22.65
2018-11-06T01:38:22.182Z,22.62
2018-11-06T01:40:54.957Z,22.59
2018-11-06T01:43:27.828Z,22.56
2018-11-06T01:46:00.684Z,22.53
2018-11-06T01:48:33.847Z,22.51
2018-11-06T01:51:06.828Z,22.49
2018-11-06T01:53:39.385Z,22.48
2018-11-06T01:56:12.511Z,22.46
2018-11-06T01:58:45.525Z,22.44
2018-11-06T02:01:18.648Z,22.43
2018-11-06T02:03:51.491Z,22.43
2018-11-06T02:06:23.870Z,22.40
2018-11-06T02:08:56.150Z,22.41
2018-11-06T02:11:28.474Z,22.41
2018-11-06T02:14:01.895Z,22.40
2018-11-06T02:16:34.179Z,22.39
2018-11-06T02:19:07.021Z,22.39
2018-11-06T02:21:40.091Z,22.36
2018-11-06T02:24:13.182Z,22.34
2018-11-06T02:26:46.265Z,22.32
2018-11-06T02:29:19.133Z,22.29
2018-11-06T02:31:52.395Z,22.27
2018-11-06T02:34:25.279Z,22.23
2018-11-06T02:36:57.904Z,22.21
2018-11-06T02:39:30.982Z,22.18
2018-11-06T02:42:03.876Z,22.15
2018-11-06T02:44:36.970Z,22.13
2018-11-06T02:47:10.425Z,22.12
2018-11-06T02:49:43.327Z,22.10
2018-11-06T02:52:16.206Z,22.07
2018-11-06T02:54:48.785Z,22.05
2018-11-06T02:57:21.903Z,22.03
2018-11-06T02:59:55.348Z,22.01
2018-11-06T03:02:28.178Z,21.99
2018-11-06T03:05:01.549Z,21.97
2018-11-06T03:07:34.375Z,21.96
2018-11-06T03:10:06.924Z,21.94
2018-11-06T03:12:39.644Z,21.92
2018-11-06T03:15:13.292Z,21.89
2018-11-06T03:17:46.438Z,21.86
2018-11-06T03:20:19.140Z,21.85
2018-11-06T03:22:53.002Z,21.83
2018-11-06T03:25:25.551Z,21.81
2018-11-06T03:28:01.127Z,21.78
2018-11-06T03:30:31.702Z,21.77
2018-11-06T03:33:04.047Z,21.75
2018-11-06T03:35:37.635Z,21.74
2018-11-06T03:38:09.942Z,21.72
2018-11-06T03:40:42.834Z,21.71
2018-11-06T03:43:15.442Z,21.70
2018-11-06T03:45:48.238Z,21.69
2018-11-06T03:48:21.335Z,21.69
2018-11-06T03:50:53.908Z,21.67
2018-11-06T03:53:26.994Z,21.64
2018-11-06T03:55:59.541Z,21.63
2018-11-06T03:58:32.550Z,21.62
2018-11-06T04:01:05.149Z,21.60
2018-11-06T04:03:38.122Z,21.59
2018-11-06T04:06:10.686Z,21.59
2018-11-06T04:08:43.299Z,21.58
2018-11-06T04:11:16.213Z,21.57
2018-11-06T04:13:49.027Z,21.56
2018-11-06T04:16:22.112Z,21.56
2018-11-06T04:18:55.417Z,21.55
2018-11-06T04:21:52.504Z,21.52
2018-11-06T04:24:25.058Z,21.52
2018-11-06T04:26:58.340Z,21.50
2018-11-06T04:29:31.161Z,21.51
2018-11-06T04:32:04.930Z,21.53
2018-11-06T04:34:37.227Z,21.54
2018-11-06T04:37:09.647Z,21.56
2018-11-06T04:39:42.298Z,21.57
2018-11-06T04:42:14.897Z,21.58
2018-11-06T04:44:47.197Z,21.60
2018-11-06T04:47:19.614Z,21.58
2018-11-06T04:49:51.883Z,21.56
2018-11-06T04:52:25.854Z,21.56
2018-11-06T04:54:58.506Z,21.55
2018-11-06T04:57:30.991Z,21.52
2018-11-06T05:00:03.876Z,21.52
2018-11-06T05:02:37.028Z,21.50
2018-11-06T05:05:10.386Z,21.48
2018-11-06T05:07:43.941Z,21.48
2018-11-06T05:10:16.731Z,21.48
2018-11-06T05:12:49.234Z,21.50
2018-11-06T05:15:22.155Z,21.56
2018-11-06T05:17:54.728Z,21.64
2018-11-06T05:20:27.639Z,21.73
2018-11-06T05:23:00.191Z,21.79
2018-11-06T05:25:32.862Z,21.87
2018-11-06T05:28:05.321Z,21.98
2018-11-06T05:30:37.898Z,22.07
2018-11-06T05:33:10.272Z,22.13
2018-11-06T05:35:42.839Z,22.18
2018-11-06T05:38:15.952Z,22.26
2018-11-06T05:41:05.386Z,22.34
2018-11-06T05:43:38.757Z,22.39
2018-11-06T05:46:12.273Z,22.41
2018-11-06T05:48:45.172Z,22.45
2018-11-06T05:51:18.306Z,22.51
2018-11-06T05:53:51.162Z,22.58
2018-11-06T05:56:23.465Z,22.63
2018-11-06T05:58:56.585Z,22.66
2018-11-06T06:01:29.412Z,22.66
2018-11-06T06:04:01.959Z,22.66
2018-11-06T06:06:35.223Z,22.66
2018-11-06T06:09:09.562Z,22.69
2018-11-06T06:11:42.617Z,22.72
2018-11-06T06:14:14.936Z,22.75
2018-11-06T06:16:47.551Z,22.79
2018-11-06T06:19:20.436Z,22.82
2018-11-06T06:21:52.795Z,22.85
2018-11-06T06:24:25.343Z,22.89
2018-11-06T06:26:58.371Z,22.90
2018-11-06T06:29:31.910Z,22.94
2018-11-06T06:32:04.710Z,22.96
2018-11-06T06:34:37.339Z,23.00
2018-11-06T06:37:10.047Z,23.03
2018-11-06T06:39:42.850Z,23.09
2018-11-06T06:42:15.134Z,23.13
2018-11-06T06:44:47.960Z,23.15
2018-11-06T06:47:21.769Z,23.16
2018-11-06T06:49:54.620Z,23.16
2018-11-06T06:52:27.458Z,23.17
2018-11-06T06:54:59.813Z,23.18
2018-11-06T06:57:32.918Z,23.17
2018-11-06T07:00:05.293Z,23.16
2018-11-06T07:02:38.625Z,23.15
2018-11-06T07:05:13.184Z,23.14
2018-11-06T07:07:45.891Z,23.14
2018-11-06T07:10:19.780Z,23.13
2018-11-06T07:12:53.676Z,23.13
2018-11-06T07:15:26.155Z,23.11
2018-11-06T07:17:58.444Z,23.09
2018-11-06T07:20:31.360Z,23.09
2018-11-06T07:23:03.919Z,23.08
2018-11-06T07:25:36.543Z,23.07
2018-11-06T07:28:09.502Z,23.07
2018-11-06T07:30:42.336Z,23.05
2018-11-06T07:33:14.748Z,23.05
2018-11-06T07:35:47.588Z,23.04
2018-11-06T07:38:20.278Z,23.10
2018-11-06T07:40:53.433Z,23.14
2018-11-06T07:43:25.658Z,23.18
2018-11-06T07:45:58.529Z,23.21
2018-11-06T07:48:31.066Z,23.24
2018-11-06T07:51:03.954Z,23.30
2018-11-06T07:53:36.821Z,23.32
2018-11-06T07:56:09.522Z,23.34
2018-11-06T07:58:42.744Z,23.38
2018-11-06T08:01:15.120Z,23.41
2018-11-06T08:03:49.043Z,23.45
2018-11-06T08:06:22.003Z,23.48
2018-11-06T08:08:57.061Z,23.51
2018-11-06T08:11:29.826Z,23.54
2018-11-06T08:14:02.643Z,23.57
2018-11-06T08:16:35.694Z,23.63
2018-11-06T08:19:08.042Z,23.66
2018-11-06T08:21:40.860Z,23.70
2018-11-06T08:24:14.002Z,23.73
2018-11-06T08:26:46.945Z,23.78
2018-11-06T08:29:19.742Z,23.80
2018-11-06T08:31:52.929Z,23.83
2018-11-06T08:34:24.835Z,23.86
2018-11-06T08:36:58.003Z,23.88
2018-11-06T08:39:30.532Z,23.89
2018-11-06T08:42:02.839Z,23.90
2018-11-06T08:44:36.504Z,23.90
2018-11-06T08:47:09.254Z,23.89
2018-11-06T08:49:41.923Z,23.88
2018-11-06T08:52:16.197Z,23.87
2018-11-06T08:54:49.254Z,23.86
2018-11-06T08:57:21.857Z,23.85
2018-11-06T08:59:54.739Z,23.83
2018-11-06T09:02:27.154Z,23.80
2018-11-06T09:04:59.685Z,23.80
2018-11-06T09:07:31.998Z,23.79
2018-11-06T09:10:04.847Z,23.75
2018-11-06T09:12:37.460Z,23.73
2018-11-06T09:15:13.116Z,23.72
2018-11-06T09:17:45.407Z,23.70
2018-11-06T09:20:18.295Z,23.69
2018-11-06T09:22:51.423Z,23.71
2018-11-06T09:25:24.044Z,23.71
2018-11-06T09:27:57.348Z,23.70
2018-11-06T09:30:30.415Z,23.31
2018-11-06T09:33:03.132Z,22.79
2018-11-06T09:35:36.052Z,22.39
2018-11-06T09:38:09.645Z,22.13
2018-11-06T09:40:43.256Z,21.91
2018-11-06T09:43:16.234Z,21.58
2018-11-06T09:45:50.087Z,21.38
2018-11-06T09:48:23.340Z,21.24
2018-11-06T09:50:55.813Z,21.16
2018-11-06T09:53:28.607Z,21.07
2018-11-06T09:56:01.409Z,20.87
2018-11-06T09:58:34.977Z,20.79
2018-11-06T10:01:07.362Z,20.63
2018-11-06T10:03:40.666Z,20.61
2018-11-06T10:06:14.138Z,20.60
2018-11-06T10:08:46.665Z,20.65
2018-11-06T10:11:19.439Z,20.68
2018-11-06T10:13:52.152Z,20.69
2018-11-06T10:16:24.766Z,20.63
2018-11-06T10:18:57.671Z,20.67
2018-11-06T10:21:30.948Z,20.61
2018-11-06T10:24:03.667Z,20.55
2018-11-06T10:26:36.573Z,20.44
2018-11-06T10:29:09.169Z,20.41
2018-11-06T10:31:41.764Z,20.40
2018-11-06T10:34:14.132Z,20.36
2018-11-06T10:36:46.990Z,20.28
2018-11-06T10:39:19.584Z,20.31
2018-11-06T10:41:51.988Z,20.30
2018-11-06T10:44:24.289Z,20.29
2018-11-06T10:46:56.857Z,20.28
2018-11-06T10:49:29.679Z,20.16
2018-11-06T10:52:01.970Z,20.21
2018-11-06T10:54:34.580Z,20.33
2018-11-06T10:57:07.462Z,20.55
2018-11-06T10:59:40.700Z,20.78
2018-11-06T11:02:43.548Z,21.03
2018-11-06T11:05:15.901Z,21.25
2018-11-06T11:07:48.323Z,21.44
2018-11-06T11:10:20.961Z,21.60
2018-11-06T11:12:53.808Z,21.73
2018-11-06T11:15:26.092Z,21.86
2018-11-06T11:17:58.959Z,21.96
2018-11-06T11:20:31.534Z,22.03
2018-11-06T11:23:04.453Z,22.11
2018-11-06T11:25:37.201Z,22.16
2018-11-06T11:28:10.172Z,22.24
2018-11-06T11:30:43.302Z,22.29
2018-11-06T11:33:17.438Z,22.38
2018-11-06T11:35:50.401Z,22.45
2018-11-06T11:38:24.260Z,22.53
2018-11-06T11:40:57.447Z,22.61
2018-11-06T11:43:30.043Z,22.66
2018-11-06T11:46:03.616Z,22.71
2018-11-06T11:48:36.866Z,22.77
2018-11-06T11:51:09.549Z,22.83
2018-11-06T11:53:42.708Z,22.89
2018-11-06T11:56:15.041Z,22.93
2018-11-06T11:58:47.342Z,22.97
2018-11-06T12:01:20.123Z,23.00
2018-11-06T12:03:53.188Z,23.01
2018-11-06T12:06:26.843Z,23.02
2018-11-06T12:08:59.650Z,23.04
2018-11-06T12:11:32.237Z,23.06
2018-11-06T12:14:04.845Z,23.08
2018-11-06T12:16:37.772Z,23.10
2018-11-06T12:19:10.456Z,23.12
2018-11-06T12:21:43.193Z,23.11
2018-11-06T12:24:15.877Z,23.14
2018-11-06T12:26:48.352Z,23.14
2018-11-06T12:29:21.004Z,23.17
2018-11-06T12:31:53.355Z,23.19
2018-11-06T12:34:25.961Z,23.20
2018-11-06T12:36:59.074Z,23.22
2018-11-06T12:39:32.251Z,23.24
2018-11-06T12:42:05.086Z,23.25
2018-11-06T12:44:38.264Z,23.25
2018-11-06T12:47:10.898Z,23.29
2018-11-06T12:49:43.589Z,23.29
2018-11-06T12:52:16.141Z,23.29
2018-11-06T12:54:49.207Z,23.31
2018-11-06T12:57:21.891Z,23.33
2018-11-06T12:59:55.281Z,23.35
2018-11-06T13:02:28.830Z,23.37
2018-11-06T13:05:01.974Z,23.39
2018-11-06T13:07:36.262Z,23.38
2018-11-06T13:10:09.011Z,23.38
2018-11-06T13:12:42.285Z,23.38
2018-11-06T13:15:15.641Z,23.40
2018-11-06T13:17:47.393Z,23.38
2018-11-06T13:20:20.580Z,23.37
2018-11-06T13:22:53.908Z,23.36
2018-11-06T13:25:26.284Z,23.34
2018-11-06T13:27:59.426Z,23.31
2018-11-06T13:30:32.441Z,23.30
2018-11-06T13:33:05.780Z,23.30
2018-11-06T13:35:38.948Z,23.29
2018-11-06T13:38:11.628Z,23.30
2018-11-06T13:40:44.441Z,23.32
2018-11-06T13:43:17.528Z,23.34
2018-11-06T13:45:50.171Z,23.37
2018-11-06T13:48:22.423Z,23.41
2018-11-06T13:50:54.986Z,23.45
2018-11-06T13:55:59.239Z,23.52
2018-11-06T13:58:32.914Z,23.54
2018-11-06T14:01:05.526Z,23.56
2018-11-06T14:03:38.649Z,23.57
2018-11-06T14:06:11.824Z,23.57
2018-11-06T14:08:45.110Z,23.58
2018-11-06T14:11:17.857Z,23.62
2018-11-06T14:13:50.149Z,23.65
2018-11-06T14:16:23.530Z,23.65
2018-11-06T14:18:55.979Z,23.63
2018-11-06T14:21:28.320Z,23.63
2018-11-06T14:24:02.155Z,23.59
2018-11-06T14:26:35.533Z,23.58
2018-11-06T14:29:08.001Z,23.57
2018-11-06T14:31:40.918Z,23.55
2018-11-06T14:34:14.968Z,23.53
2018-11-06T14:36:48.138Z,23.49
2018-11-06T14:39:21.106Z,23.47
2018-11-06T14:41:53.806Z,23.46
2018-11-06T14:44:27.112Z,23.45
2018-11-06T14:47:00.350Z,23.46
2018-11-06T14:49:32.766Z,23.47
2018-11-06T14:52:05.570Z,23.51
2018-11-06T14:54:39.246Z,23.54
2018-11-06T14:57:11.703Z,23.57
2018-11-06T14:59:44.418Z,23.59
2018-11-06T15:02:17.766Z,23.63
2018-11-06T15:04:50.971Z,23.65
2018-11-06T15:07:23.645Z,23.68
2018-11-06T15:09:56.389Z,23.70
2018-11-06T15:12:29.083Z,23.75
2018-11-06T15:15:02.683Z,23.76
2018-11-06T15:17:35.352Z,23.76
2018-11-06T15:20:10.833Z,23.77
2018-11-06T15:22:44.003Z,23.79
2018-11-06T15:25:17.412Z,23.76
2018-11-06T15:27:50.619Z,23.75
2018-11-06T15:30:23.205Z,23.75
2018-11-06T15:32:55.977Z,23.76
2018-11-06T15:35:29.138Z,23.77
2018-11-06T15:38:03.260Z,23.78
2018-11-06T15:40:34.964Z,23.80
2018-11-06T15:43:07.323Z,23.80
2018-11-06T15:45:40.618Z,23.80
2018-11-06T15:48:13.507Z,23.84
2018-11-06T15:50:46.138Z,23.87
2018-11-06T15:53:19.135Z,23.89
2018-11-06T15:55:51.435Z,23.85
2018-11-06T15:58:24.070Z,23.44
2018-11-06T16:00:56.368Z,23.14
2018-11-06T16:03:29.793Z,22.82
2018-11-06T16:06:03.589Z,22.55
2018-11-06T16:08:36.457Z,22.37
2018-11-06T16:11:08.772Z,22.23
2018-11-06T16:13:42.129Z,22.09
2018-11-06T16:16:14.989Z,21.93
2018-11-06T16:18:48.167Z,21.81
2018-11-06T16:21:21.394Z,21.67
2018-11-06T16:23:54.478Z,21.53
2018-11-06T16:26:27.663Z,21.43
2018-11-06T16:29:00.779Z,21.43
2018-11-06T16:31:35.083Z,21.59
2018-11-06T16:34:07.456Z,21.81
2018-11-06T16:36:40.090Z,22.02
2018-11-06T16:39:13.963Z,22.23
2018-11-06T16:41:46.621Z,22.38
2018-11-06T16:44:19.773Z,22.52
2018-11-06T16:46:52.415Z,22.63
2018-11-06T16:49:25.386Z,22.73
2018-11-06T16:51:58.280Z,22.81
2018-11-06T16:54:31.237Z,22.88
2018-11-06T16:57:04.233Z,22.95
2018-11-06T16:59:36.536Z,23.00
2018-11-06T17:02:09.162Z,23.06
2018-11-06T17:04:42.725Z,23.12
2018-11-06T17:07:16.223Z,23.15
2018-11-06T17:09:49.600Z,23.18
2018-11-06T17:12:21.996Z,23.21
2018-11-06T17:14:55.295Z,23.22
2018-11-06T17:17:28.385Z,23.25
2018-11-06T17:20:01.010Z,23.28
2018-11-06T17:22:33.843Z,23.28
2018-11-06T17:25:07.338Z,23.31
2018-11-06T17:27:39.817Z,23.31
2018-11-06T17:30:15.187Z,23.32
2018-11-06T17:32:47.620Z,23.32
2018-11-06T17:35:20.838Z,23.32
2018-11-06T17:37:53.909Z,23.31
2018-11-06T17:40:26.186Z,23.30
2018-11-06T17:42:58.794Z,23.28
2018-11-06T17:45:31.422Z,23.29
2018-11-06T17:48:04.021Z,23.27
2018-11-06T17:50:36.913Z,23.24
2018-11-06T17:53:09.521Z,23.23
2018-11-06T17:55:42.109Z,23.23
2018-11-06T17:58:14.694Z,23.23
2018-11-06T18:00:47.015Z,23.22
2018-11-06T18:03:20.111Z,23.23
2018-11-06T18:05:53.050Z,23.23
2018-11-06T18:08:26.234Z,23.22
2018-11-06T18:10:58.892Z,23.26
2018-11-06T18:13:31.183Z,23.32
2018-11-06T18:16:04.074Z,23.38
2018-11-06T18:18:36.935Z,23.44
2018-11-06T18:21:09.288Z,23.47
2018-11-06T18:24:00.911Z,23.52
2018-11-06T18:26:33.262Z,23.55
2018-11-06T18:29:05.839Z,23.58
2018-11-06T18:31:38.841Z,23.64
2018-11-06T18:34:11.538Z,23.65
2018-11-06T18:36:44.858Z,23.69
2018-11-06T18:39:17.727Z,23.73
2018-11-06T18:41:52.176Z,23.75
2018-11-06T18:44:24.720Z,23.77
2018-11-06T18:46:57.343Z,23.78
2018-11-06T18:49:30.244Z,23.80
2018-11-06T18:52:02.952Z,23.82
2018-11-06T18:54:35.554Z,23.81
2018-11-06T18:57:07.866Z,23.80
2018-11-06T18:59:40.702Z,23.78
2018-11-06T19:02:13.548Z,23.77
2018-11-06T19:04:46.627Z,23.77
2018-11-06T19:07:18.962Z,23.77
2018-11-06T19:09:51.947Z,23.78
2018-11-06T19:12:24.830Z,23.77
2018-11-06T19:14:57.834Z,23.78
2018-11-06T19:17:30.155Z,23.79
2018-11-06T19:20:02.779Z,23.78
2018-11-06T19:22:35.766Z,23.78
2018-11-06T19:25:09.696Z,23.77
2018-11-06T19:27:42.083Z,23.76
2018-11-06T19:30:21.305Z,23.73
2018-11-06T19:32:54.603Z,23.68
2018-11-06T19:35:27.275Z,23.65
2018-11-06T19:37:59.829Z,23.62
2018-11-06T19:40:32.246Z,23.61
2018-11-06T19:43:04.843Z,23.60
2018-11-06T19:45:37.492Z,23.61
2018-11-06T19:48:10.063Z,23.60
2018-11-06T19:50:43.334Z,23.64
2018-11-06T19:53:16.084Z,23.67
2018-11-06T19:55:48.876Z,23.71
2018-11-06T19:58:21.605Z,23.72
2018-11-06T20:00:54.413Z,23.75
2018-11-06T20:03:27.423Z,23.75
2018-11-06T20:06:01.662Z,23.75
2018-11-06T20:08:34.587Z,23.77
2018-11-06T20:11:07.967Z,23.77
2018-11-06T20:13:40.621Z,23.78
2018-11-06T20:16:13.614Z,23.81
2018-11-06T20:18:47.628Z,23.82
2018-11-06T20:21:21.539Z,23.84
2018-11-06T20:23:56.861Z,23.83
2018-11-06T20:26:31.298Z,23.81
2018-11-06T20:29:06.519Z,23.80
2018-11-06T20:31:42.315Z,23.80
2018-11-06T20:34:17.033Z,23.79
2018-11-06T20:36:51.871Z,23.79
2018-11-06T20:39:27.579Z,23.80
2018-11-06T20:42:02.123Z,23.80
2018-11-06T20:44:36.009Z,23.83
2018-11-06T20:47:09.162Z,23.85
2018-11-06T20:49:41.935Z,23.86
2018-11-06T20:52:14.392Z,23.87
2018-11-06T20:54:47.475Z,23.89
2018-11-06T20:57:20.603Z,23.93
2018-11-06T20:59:53.687Z,23.98
2018-11-06T21:02:26.605Z,24.02
2018-11-06T21:05:01.532Z,24.05
2018-11-06T21:07:35.159Z,24.07
2018-11-06T21:10:08.101Z,24.08
2018-11-06T21:12:40.822Z,24.08
2018-11-06T21:15:13.731Z,24.08
2018-11-06T21:17:46.708Z,24.09
2018-11-06T21:20:19.470Z,24.09
2018-11-06T21:22:51.763Z,24.07
2018-11-06T21:25:24.649Z,24.07
2018-11-06T21:27:57.470Z,24.06
2018-11-06T21:30:30.736Z,24.06
2018-11-06T21:33:03.295Z,24.06
2018-11-06T21:35:35.611Z,24.05
2018-11-06T21:38:08.678Z,24.06
2018-11-06T21:40:42.896Z,24.10
2018-11-06T21:43:15.692Z,24.14
2018-11-06T21:45:50.792Z,24.19
2018-11-06T21:48:23.915Z,24.24
2018-11-06T21:50:56.814Z,24.28
2018-11-06T21:53:29.500Z,24.30
2018-11-06T21:56:01.807Z,24.32
2018-11-06T21:58:35.704Z,24.34
2018-11-06T22:01:08.324Z,24.36
2018-11-06T22:03:41.150Z,24.37
2018-11-06T22:06:13.753Z,24.37
2018-11-06T22:08:47.161Z,24.36
2018-11-06T22:11:20.325Z,24.34
2018-11-06T22:13:53.465Z,24.32
2018-11-06T22:16:26.137Z,24.31
2018-11-06T22:18:58.753Z,24.27
2018-11-06T22:21:31.372Z,24.25
2018-11-06T22:24:03.708Z,24.22
2018-11-06T22:26:36.059Z,24.18
2018-11-06T22:29:08.463Z,24.16
2018-11-06T22:31:41.209Z,24.13
2018-11-06T22:34:13.997Z,24.09
2018-11-06T22:36:46.370Z,24.07
2018-11-06T22:39:19.982Z,24.05
2018-11-06T22:41:53.167Z,24.03
2018-11-06T22:44:25.506Z,24.01
2018-11-06T22:46:58.971Z,23.97
2018-11-06T22:49:32.008Z,23.95
2018-11-06T22:52:05.200Z,23.93
2018-11-06T22:54:37.871Z,23.91
2018-11-06T22:57:10.482Z,23.90
2018-11-06T22:59:43.270Z,23.89
2018-11-06T23:02:15.642Z,23.87
2018-11-06T23:04:48.794Z,23.90
2018-11-06T23:07:39.072Z,23.87
2018-11-06T23:10:10.763Z,23.85
2018-11-06T23:12:43.752Z,23.80
2018-11-06T23:15:16.511Z,23.78
2018-11-06T23:17:49.313Z,23.74
2018-11-06T23:20:22.291Z,23.73
2018-11-06T23:22:54.920Z,23.68
2018-11-06T23:25:28.405Z,23.67
2018-11-06T23:28:01.356Z,23.65
2018-11-06T23:30:33.886Z,23.63
2018-11-06T23:33:06.586Z,23.58
2018-11-06T23:35:40.019Z,23.54
2018-11-06T23:38:13.055Z,23.49
2018-11-06T23:40:45.850Z,23.45
2018-11-06T23:43:18.164Z,23.41
2018-11-06T23:45:50.882Z,23.38
2018-11-06T23:48:23.782Z,23.37
2018-11-06T23:50:56.729Z,23.35
2018-11-06T23:53:29.619Z,23.33
2018-11-06T23:56:03.049Z,23.33
2018-11-06T23:58:36.292Z,23.31
